Tonka Bay, Minnesota
Current Conditions -  °F | °C
As of 3:53 AM on Saturday 22 Nov 2014 (Local Time) from KFCM Reporting Station
Haze Haze  
Wind Chill: 26°   Ceiling: 800
Heat Index: 35°   Visibility: 4mi
Dew Point: 33°   Wind: 14mph
Humidity: 92%   Direction: 210°SSW
Pressure: 29.79"   Gusts: NA
Location:  44.8924°N, 93.5895°W
Report Text: KFCM 220953Z AUTO 21012KT 4SM BR OVC008 02/01 A2979 RMK AO2 CIG 007V012 SLP097 T00170006
Loading
Personal Weather Stations






























Interactive Weather Map New forecast layout! Learn more

10-Day Weather Forecast

Advertisements
Track Severe Weather on mobile